sensor_id;sensor_type;location;lat;lon;timestamp;pressure;altitude;pressure_sealevel;temperature;humidity
19259;BME280;9763;48.780;9.212;2023-03-01T00:02:11;99165.16;;;3.62;54.19
19259;BME280;9763;48.780;9.212;2023-03-01T00:05:36;99172.97;;;3.61;54.37
19259;BME280;9763;48.780;9.212;2023-03-01T00:09:06;99185.75;;;3.64;54.59
19259;BME280;9763;48.780;9.212;2023-03-01T00:12:31;99177.25;;;3.62;53.90
19259;BME280;9763;48.780;9.212;2023-03-01T00:15:55;99163.78;;;3.49;54.50
19259;BME280;9763;48.780;9.212;2023-03-01T00:19:19;99175.59;;;3.58;54.33
19259;BME280;9763;48.780;9.212;2023-03-01T00:22:45;99179.94;;;3.56;54.14
19259;BME280;9763;48.780;9.212;2023-03-01T00:26:15;99183.47;;;3.52;54.31
19259;BME280;9763;48.780;9.212;2023-03-01T00:29:39;99186.09;;;3.50;54.57
19259;BME280;9763;48.780;9.212;2023-03-01T00:33:03;99183.66;;;3.46;54.21
19259;BME280;9763;48.780;9.212;2023-03-01T00:36:31;99180.25;;;3.44;54.24
19259;BME280;9763;48.780;9.212;2023-03-01T00:39:58;99181.16;;;3.41;54.52
19259;BME280;9763;48.780;9.212;2023-03-01T00:43:22;99180.28;;;3.42;54.25
19259;BME280;9763;48.780;9.212;2023-03-01T00:46:45;99175.19;;;3.39;54.20
19259;BME280;9763;48.780;9.212;2023-03-01T00:50:11;99176.13;;;3.37;54.21
19259;BME280;9763;48.780;9.212;2023-03-01T00:53:36;99171.94;;;3.31;54.40
19259;BME280;9763;48.780;9.212;2023-03-01T00:57:01;99165.22;;;3.25;54.29
19259;BME280;9763;48.780;9.212;2023-03-01T01:00:25;99177.16;;;3.28;54.67
19259;BME280;9763;48.780;9.212;2023-03-01T01:03:54;99176.31;;;3.28;54.51
19259;BME280;9763;48.780;9.212;2023-03-01T01:07:19;99169.47;;;3.26;54.31
19259;BME280;9763;48.780;9.212;2023-03-01T01:10:44;99165.25;;;3.24;54.79
19259;BME280;9763;48.780;9.212;2023-03-01T01:14:09;99167.91;;;3.21;54.56
19259;BME280;9763;48.780;9.212;2023-03-01T01:17:33;99162.81;;;3.18;54.93
19259;BME280;9763;48.780;9.212;2023-03-01T01:20:57;99164.50;;;3.19;54.44
19259;BME280;9763;48.780;9.212;2023-03-01T01:24:22;99164.50;;;3.19;54.71
19259;BME280;9763;48.780;9.212;2023-03-01T01:27:45;99164.50;;;3.19;54.68
19259;BME280;9763;48.780;9.212;2023-03-01T01:31:11;99157.63;;;3.18;54.52
19259;BME280;9763;48.780;9.212;2023-03-01T01:34:34;99153.38;;;3.17;54.92
19259;BME280;9763;48.780;9.212;2023-03-01T01:37:58;99147.38;;;3.15;55.00
19259;BME280;9763;48.780;9.212;2023-03-01T01:41:24;99141.47;;;3.11;54.69
19259;BME280;9763;48.780;9.212;2023-03-01T01:44:48;99143.09;;;3.15;54.88
19259;BME280;9763;48.780;9.212;2023-03-01T01:48:41;99123.47;;;3.10;54.57
19259;BME280;9763;48.780;9.212;2023-03-01T01:52:12;99121.66;;;3.13;54.63
19259;BME280;9763;48.780;9.212;2023-03-01T01:55:41;99116.38;;;3.18;54.71
19259;BME280;9763;48.780;9.212;2023-03-01T01:59:06;99128.75;;;3.39;55.16
19259;BME280;9763;48.780;9.212;2023-03-01T02:02:30;99121.78;;;3.43;54.56
19259;BME280;9763;48.780;9.212;2023-03-01T02:06:01;99124.91;;;3.55;54.92
19259;BME280;9763;48.780;9.212;2023-03-01T02:09:27;99120.28;;;3.68;54.69
19259;BME280;9763;48.780;9.212;2023-03-01T02:12:53;99125.16;;;3.79;54.86
19259;BME280;9763;48.780;9.212;2023-03-01T02:16:18;99113.66;;;3.90;54.84
19259;BME280;9763;48.780;9.212;2023-03-01T02:19:57;99104.78;;;4.01;54.97
19259;BME280;9763;48.780;9.212;2023-03-01T02:23:27;99102.09;;;4.05;54.75
19259;BME280;9763;48.780;9.212;2023-03-01T02:26:55;99096.00;;;4.08;54.72
19259;BME280;9763;48.780;9.212;2023-03-01T02:30:24;99091.56;;;4.11;54.38
19259;BME280;9763;48.780;9.212;2023-03-01T02:33:48;99087.16;;;4.15;54.65
19259;BME280;9763;48.780;9.212;2023-03-01T02:37:14;99084.47;;;4.19;54.73
19259;BME280;9763;48.780;9.212;2023-03-01T02:40:43;99085.19;;;4.23;54.71
19259;BME280;9763;48.780;9.212;2023-03-01T02:44:11;99079.16;;;4.24;54.59
19259;BME280;9763;48.780;9.212;2023-03-01T02:47:37;99073.88;;;4.28;54.67
19259;BME280;9763;48.780;9.212;2023-03-01T02:51:11;99078.03;;;4.34;54.82
19259;BME280;9763;48.780;9.212;2023-03-01T02:54:43;99072.69;;;4.39;54.57
19259;BME280;9763;48.780;9.212;2023-03-01T02:58:11;99062.28;;;4.42;54.70
19259;BME280;9763;48.780;9.212;2023-03-01T03:01:35;99059.66;;;4.43;54.77
19259;BME280;9763;48.780;9.212;2023-03-01T03:05:07;99063.94;;;4.44;54.72
19259;BME280;9763;48.780;9.212;2023-03-01T03:08:31;99057.00;;;4.46;54.94
19259;BME280;9763;48.780;9.212;2023-03-01T03:11:55;99040.63;;;4.46;55.04
19259;BME280;9763;48.780;9.212;2023-03-01T03:15:20;99050.72;;;4.53;55.10
19259;BME280;9763;48.780;9.212;2023-03-01T03:18:44;99047.34;;;4.51;54.68
19259;BME280;9763;48.780;9.212;2023-03-01T03:22:09;99007.63;;;4.26;54.57
19259;BME280;9763;48.780;9.212;2023-03-01T03:25:33;99039.63;;;4.50;54.71
19259;BME280;9763;48.780;9.212;2023-03-01T03:28:59;99046.50;;;4.51;54.65
19259;BME280;9763;48.780;9.212;2023-03-01T03:32:23;99045.59;;;4.52;54.95
19259;BME280;9763;48.780;9.212;2023-03-01T03:35:49;99036.03;;;4.55;54.88
19259;BME280;9763;48.780;9.212;2023-03-01T03:39:14;99037.69;;;4.58;54.71
19259;BME280;9763;48.780;9.212;2023-03-01T03:42:41;99046.13;;;4.63;54.63
19259;BME280;9763;48.780;9.212;2023-03-01T03:46:06;99044.28;;;4.66;54.52
19259;BME280;9763;48.780;9.212;2023-03-01T03:49:30;99035.44;;;4.74;54.92
19259;BME280;9763;48.780;9.212;2023-03-01T03:52:53;99037.91;;;4.78;54.38
19259;BME280;9763;48.780;9.212;2023-03-01T03:56:18;99038.66;;;4.82;54.92
19259;BME280;9763;48.780;9.212;2023-03-01T03:59:42;99029.03;;;4.85;54.80
19259;BME280;9763;48.780;9.212;2023-03-01T04:03:06;99029.75;;;4.90;54.60
19259;BME280;9763;48.780;9.212;2023-03-01T04:06:30;99023.59;;;4.94;54.86
19259;BME280;9763;48.780;9.212;2023-03-01T04:09:54;99020.03;;;4.97;54.48
19259;BME280;9763;48.780;9.212;2023-03-01T04:13:21;99013.91;;;4.99;54.51
19259;BME280;9763;48.780;9.212;2023-03-01T04:16:47;99012.22;;;4.98;54.97
19259;BME280;9763;48.780;9.212;2023-03-01T04:20:14;99010.53;;;4.97;54.60
19259;BME280;9763;48.780;9.212;2023-03-01T04:23:40;99013.03;;;5.00;55.07
19259;BME280;9763;48.780;9.212;2023-03-01T04:27:04;99010.41;;;5.02;54.96
19259;BME280;9763;48.780;9.212;2023-03-01T04:30:29;99008.84;;;4.96;54.64
19259;BME280;9763;48.780;9.212;2023-03-01T04:33:57;99010.56;;;4.96;55.11
19259;BME280;9763;48.780;9.212;2023-03-01T04:37:22;98996.13;;;4.90;54.92
19259;BME280;9763;48.780;9.212;2023-03-01T04:40:48;99005.19;;;5.03;55.00
19259;BME280;9763;48.780;9.212;2023-03-01T04:44:12;99009.28;;;5.09;55.24
19259;BME280;9763;48.780;9.212;2023-03-01T04:47:37;99012.66;;;5.11;54.73
19259;BME280;9763;48.780;9.212;2023-03-01T04:51:02;99002.38;;;5.10;55.21
19259;BME280;9763;48.780;9.212;2023-03-01T04:54:26;99006.50;;;5.15;54.91
19259;BME280;9763;48.780;9.212;2023-03-01T04:57:50;99002.19;;;5.16;55.04
19259;BME280;9763;48.780;9.212;2023-03-01T05:01:16;99014.09;;;5.20;54.76
19259;BME280;9763;48.780;9.212;2023-03-01T05:04:41;99008.09;;;5.19;54.96
19259;BME280;9763;48.780;9.212;2023-03-01T05:08:07;99002.94;;;5.19;54.84
19259;BME280;9763;48.780;9.212;2023-03-01T05:11:32;99005.44;;;5.21;55.03
19259;BME280;9763;48.780;9.212;2023-03-01T05:14:58;99002.81;;;5.22;54.81
19259;BME280;9763;48.780;9.212;2023-03-01T05:18:22;99001.97;;;5.22;54.98
19259;BME280;9763;48.780;9.212;2023-03-01T05:21:49;99004.34;;;5.28;55.02
19259;BME280;9763;48.780;9.212;2023-03-01T05:25:27;99000.75;;;5.32;54.80
19259;BME280;9763;48.780;9.212;2023-03-01T05:28:55;99000.66;;;5.35;55.22
19259;BME280;9763;48.780;9.212;2023-03-01T05:32:21;99002.34;;;5.36;54.72
19259;BME280;9763;48.780;9.212;2023-03-01T05:35:45;98997.13;;;5.37;54.94
19259;BME280;9763;48.780;9.212;2023-03-01T05:39:12;99002.19;;;5.40;54.61
19259;BME280;9763;48.780;9.212;2023-03-01T05:42:35;98998.84;;;5.37;55.06
19259;BME280;9763;48.780;9.212;2023-03-01T05:45:59;99003.13;;;5.38;54.85
19259;BME280;9763;48.780;9.212;2023-03-01T05:49:23;99002.34;;;5.36;54.92
19259;BME280;9763;48.780;9.212;2023-03-01T05:52:50;98997.22;;;5.34;54.92
19259;BME280;9763;48.780;9.212;2023-03-01T05:56:16;99004.25;;;5.31;54.89
19259;BME280;9763;48.780;9.212;2023-03-01T05:59:39;98999.97;;;5.30;54.78
19259;BME280;9763;48.780;9.212;2023-03-01T06:03:03;98986.19;;;5.29;54.87
19259;BME280;9763;48.780;9.212;2023-03-01T06:06:27;98984.38;;;5.31;55.05
19259;BME280;9763;48.780;9.212;2023-03-01T06:09:52;98986.06;;;5.32;55.15
19259;BME280;9763;48.780;9.212;2023-03-01T06:13:17;98986.84;;;5.34;55.25
19259;BME280;9763;48.780;9.212;2023-03-01T06:16:41;98981.63;;;5.36;55.01
19259;BME280;9763;48.780;9.212;2023-03-01T06:20:08;98984.22;;;5.36;54.68
19259;BME280;9763;48.780;9.212;2023-03-01T06:23:32;98979.94;;;5.35;54.85
19259;BME280;9763;48.780;9.212;2023-03-01T06:26:56;98985.72;;;5.43;54.86
19259;BME280;9763;48.780;9.212;2023-03-01T06:30:23;98978.84;;;5.42;54.84
19259;BME280;9763;48.780;9.212;2023-03-01T06:33:47;98995.94;;;5.46;55.04
19259;BME280;9763;48.780;9.212;2023-03-01T06:37:11;98996.13;;;5.41;55.27
19259;BME280;9763;48.780;9.212;2023-03-01T06:40:34;98992.78;;;5.38;54.54
19259;BME280;9763;48.780;9.212;2023-03-01T06:43:58;99006.63;;;5.37;55.21
19259;BME280;9763;48.780;9.212;2023-03-01T06:47:24;98998.72;;;5.41;55.03
19259;BME280;9763;48.780;9.212;2023-03-01T06:50:47;98989.13;;;5.43;55.03
19259;BME280;9763;48.780;9.212;2023-03-01T06:54:11;99001.00;;;5.49;54.92
19259;BME280;9763;48.780;9.212;2023-03-01T06:57:34;98996.41;;;5.57;55.50
19259;BME280;9763;48.780;9.212;2023-03-01T07:00:58;98975.19;;;5.48;55.30
19259;BME280;9763;48.780;9.212;2023-03-01T07:04:23;99002.38;;;5.59;54.94
19259;BME280;9763;48.780;9.212;2023-03-01T07:07:47;98989.63;;;5.55;55.16
19259;BME280;9763;48.780;9.212;2023-03-01T07:11:11;98991.41;;;5.53;55.11
19259;BME280;9763;48.780;9.212;2023-03-01T07:14:34;98983.03;;;5.44;55.00
19259;BME280;9763;48.780;9.212;2023-03-01T07:17:58;98991.78;;;5.42;55.24
19259;BME280;9763;48.780;9.212;2023-03-01T07:21:23;98982.38;;;5.39;55.38
19259;BME280;9763;48.780;9.212;2023-03-01T07:24:47;98981.50;;;5.40;55.29
19259;BME280;9763;48.780;9.212;2023-03-01T07:28:10;98980.41;;;5.46;55.47
19259;BME280;9763;48.780;9.212;2023-03-01T07:31:34;98975.09;;;5.51;55.47
19259;BME280;9763;48.780;9.212;2023-03-01T07:34:59;98968.06;;;5.54;55.17
19259;BME280;9763;48.780;9.212;2023-03-01T07:38:24;98951.09;;;5.46;55.19
19259;BME280;9763;48.780;9.212;2023-03-01T07:41:48;98952.69;;;5.50;55.26
19259;BME280;9763;48.780;9.212;2023-03-01T07:45:16;98962.75;;;5.57;55.27
19259;BME280;9763;48.780;9.212;2023-03-01T07:48:39;98964.44;;;5.58;55.16
19259;BME280;9763;48.780;9.212;2023-03-01T07:52:04;98959.16;;;5.61;55.26
19259;BME280;9763;48.780;9.212;2023-03-01T07:55:28;98954.53;;;5.69;55.40
19259;BME280;9763;48.780;9.212;2023-03-01T07:58:52;98954.38;;;5.74;55.43
19259;BME280;9763;48.780;9.212;2023-03-01T08:02:16;98958.41;;;5.81;55.30
19259;BME280;9763;48.780;9.212;2023-03-01T08:05:40;98946.09;;;5.88;55.61
19259;BME280;9763;48.780;9.212;2023-03-01T08:09:04;98932.31;;;5.87;55.06
19259;BME280;9763;48.780;9.212;2023-03-01T08:12:29;98947.38;;;6.01;55.54
19259;BME280;9763;48.780;9.212;2023-03-01T08:15:53;98947.13;;;6.07;55.34
19259;BME280;9763;48.780;9.212;2023-03-01T08:19:17;98936.66;;;6.10;55.67
19259;BME280;9763;48.780;9.212;2023-03-01T08:22:41;98944.25;;;6.14;55.50
19259;BME280;9763;48.780;9.212;2023-03-01T08:26:07;98945.75;;;6.20;55.38
19259;BME280;9763;48.780;9.212;2023-03-01T08:29:33;98936.75;;;6.29;55.39
19259;BME280;9763;48.780;9.212;2023-03-01T08:32:57;98927.69;;;6.82;55.97
19259;BME280;9763;48.780;9.212;2023-03-01T08:36:21;98933.72;;;8.56;57.76
19259;BME280;9763;48.780;9.212;2023-03-01T08:39:46;98919.94;;;10.36;57.71
19259;BME280;9763;48.780;9.212;2023-03-01T08:43:10;98923.03;;;12.18;56.92
19259;BME280;9763;48.780;9.212;2023-03-01T08:46:37;98916.00;;;13.75;55.46
19259;BME280;9763;48.780;9.212;2023-03-01T08:50:03;98911.44;;;14.98;54.49
19259;BME280;9763;48.780;9.212;2023-03-01T08:53:27;98908.31;;;15.28;53.19
19259;BME280;9763;48.780;9.212;2023-03-01T08:56:50;98890.81;;;14.69;52.91
19259;BME280;9763;48.780;9.212;2023-03-01T09:00:14;98904.59;;;14.13;52.63
19259;BME280;9763;48.780;9.212;2023-03-01T09:03:41;98898.78;;;14.20;53.09
19259;BME280;9763;48.780;9.212;2023-03-01T09:07:05;98886.84;;;14.99;54.07
19259;BME280;9763;48.780;9.212;2023-03-01T09:10:30;98882.72;;;16.19;53.49
19259;BME280;9763;48.780;9.212;2023-03-01T09:13:54;98872.06;;;17.47;52.44
19259;BME280;9763;48.780;9.212;2023-03-01T09:17:17;98872.84;;;18.67;51.89
19259;BME280;9763;48.780;9.212;2023-03-01T09:20:45;98864.28;;;19.68;50.69
19259;BME280;9763;48.780;9.212;2023-03-01T09:24:14;98855.63;;;20.48;49.78
19259;BME280;9763;48.780;9.212;2023-03-01T09:27:44;98852.06;;;21.19;48.28
19259;BME280;9763;48.780;9.212;2023-03-01T09:31:08;98846.66;;;21.63;48.29
19259;BME280;9763;48.780;9.212;2023-03-01T09:34:35;98848.34;;;21.98;47.85
19259;BME280;9763;48.780;9.212;2023-03-01T09:38:20;98838.66;;;22.47;47.33
19259;BME280;9763;48.780;9.212;2023-03-01T09:41:50;98842.88;;;22.82;46.83
19259;BME280;9763;48.780;9.212;2023-03-01T09:45:30;98838.84;;;23.10;46.41
19259;BME280;9763;48.780;9.212;2023-03-01T09:49:02;98847.66;;;23.11;46.23
19259;BME280;9763;48.780;9.212;2023-03-01T09:52:35;98837.34;;;23.16;44.99
19259;BME280;9763;48.780;9.212;2023-03-01T09:56:12;98829.31;;;23.32;44.71
19259;BME280;9763;48.780;9.212;2023-03-01T09:59:56;98790.38;;;23.23;45.02
19259;BME280;9763;48.780;9.212;2023-03-01T10:03:27;98818.88;;;23.78;44.73
19259;BME280;9763;48.780;9.212;2023-03-01T10:07:13;98819.78;;;24.01;43.32
19259;BME280;9763;48.780;9.212;2023-03-01T10:10:44;98803.00;;;24.15;44.07
19259;BME280;9763;48.780;9.212;2023-03-01T10:14:21;98801.34;;;24.45;43.51
19259;BME280;9763;48.780;9.212;2023-03-01T10:17:52;98787.44;;;24.72;42.96
19259;BME280;9763;48.780;9.212;2023-03-01T10:21:20;98792.97;;;25.08;41.87
19259;BME280;9763;48.780;9.212;2023-03-01T10:24:44;98782.38;;;25.15;41.31
19259;BME280;9763;48.780;9.212;2023-03-01T10:28:17;98780.84;;;25.35;41.89
19259;BME280;9763;48.780;9.212;2023-03-01T10:31:46;98770.56;;;25.54;42.03
19259;BME280;9763;48.780;9.212;2023-03-01T10:35:19;98764.75;;;25.79;41.32
19259;BME280;9763;48.780;9.212;2023-03-01T10:38:51;98746.50;;;25.83;41.21
19259;BME280;9763;48.780;9.212;2023-03-01T10:42:26;98767.28;;;26.02;41.56
19259;BME280;9763;48.780;9.212;2023-03-01T10:45:51;98759.38;;;26.15;40.97
19259;BME280;9763;48.780;9.212;2023-03-01T10:49:19;98751.69;;;26.06;40.10
19259;BME280;9763;48.780;9.212;2023-03-01T10:52:58;98764.66;;;26.09;40.31
19259;BME280;9763;48.780;9.212;2023-03-01T10:56:23;98752.66;;;26.19;40.22
19259;BME280;9763;48.780;9.212;2023-03-01T11:00:15;98746.75;;;26.09;39.60
19259;BME280;9763;48.780;9.212;2023-03-01T11:03:41;98737.63;;;25.82;38.69
19259;BME280;9763;48.780;9.212;2023-03-01T11:07:06;98733.69;;;25.64;39.45
19259;BME280;9763;48.780;9.212;2023-03-01T11:10:33;98713.19;;;25.35;38.22
19259;BME280;9763;48.780;9.212;2023-03-01T11:14:00;98720.16;;;25.36;39.40
19259;BME280;9763;48.780;9.212;2023-03-01T11:17:31;98725.88;;;25.62;39.00
19259;BME280;9763;48.780;9.212;2023-03-01T11:21:15;98719.31;;;25.65;38.82
19259;BME280;9763;48.780;9.212;2023-03-01T11:24:43;98704.56;;;25.69;39.05
19259;BME280;9763;48.780;9.212;2023-03-01T11:28:16;98707.13;;;25.77;39.20
19259;BME280;9763;48.780;9.212;2023-03-01T11:31:41;98689.59;;;25.74;38.59
19259;BME280;9763;48.780;9.212;2023-03-01T11:35:24;98684.88;;;25.76;38.55
19259;BME280;9763;48.780;9.212;2023-03-01T11:38:49;98675.41;;;25.74;38.56
19259;BME280;9763;48.780;9.212;2023-03-01T11:42:20;98673.22;;;25.63;38.48
19259;BME280;9763;48.780;9.212;2023-03-01T11:46:01;98675.53;;;25.51;39.16
19259;BME280;9763;48.780;9.212;2023-03-01T11:49:58;98668.66;;;25.27;39.97
19259;BME280;9763;48.780;9.212;2023-03-01T11:53:48;98651.81;;;25.12;39.88
19259;BME280;9763;48.780;9.212;2023-03-01T11:57:33;98647.16;;;24.99;39.75
19259;BME280;9763;48.780;9.212;2023-03-01T12:01:41;98639.75;;;24.87;40.45
19259;BME280;9763;48.780;9.212;2023-03-01T12:05:39;98642.41;;;24.57;39.41
19259;BME280;9763;48.780;9.212;2023-03-01T12:09:30;98612.88;;;23.84;38.16
19259;BME280;9763;48.780;9.212;2023-03-01T12:13:23;98642.25;;;23.53;39.07
19259;BME280;9763;48.780;9.212;2023-03-01T12:17:11;98631.84;;;23.04;38.17
19259;BME280;9763;48.780;9.212;2023-03-01T12:20:49;98617.63;;;22.64;38.06
19259;BME280;9763;48.780;9.212;2023-03-01T12:25:06;98602.59;;;22.33;38.12
19259;BME280;9763;48.780;9.212;2023-03-01T12:29:07;98602.78;;;22.07;38.55
19259;BME280;9763;48.780;9.212;2023-03-01T12:32:55;98587.56;;;21.26;37.68
19259;BME280;9763;48.780;9.212;2023-03-01T12:37:04;98602.50;;;19.99;39.35
19259;BME280;9763;48.780;9.212;2023-03-01T12:40:53;98592.34;;;19.06;39.37
19259;BME280;9763;48.780;9.212;2023-03-01T12:44:40;98584.53;;;18.40;39.73
19259;BME280;9763;48.780;9.212;2023-03-01T12:48:38;98578.72;;;17.80;40.30
19259;BME280;9763;48.780;9.212;2023-03-01T12:52:13;98571.34;;;17.26;41.17
19259;BME280;9763;48.780;9.212;2023-03-01T12:55:42;98563.63;;;16.84;41.57
19259;BME280;9763;48.780;9.212;2023-03-01T12:59:16;98560.13;;;16.44;41.62
19259;BME280;9763;48.780;9.212;2023-03-01T13:02:52;98552.91;;;16.06;42.19
19259;BME280;9763;48.780;9.212;2023-03-01T13:06:25;98553.94;;;15.73;41.86
19259;BME280;9763;48.780;9.212;2023-03-01T13:10:21;98555.75;;;15.40;42.27
19259;BME280;9763;48.780;9.212;2023-03-01T13:13:48;98552.81;;;15.23;42.42
19259;BME280;9763;48.780;9.212;2023-03-01T13:17:43;98550.84;;;15.04;42.59
19259;BME280;9763;48.780;9.212;2023-03-01T13:21:09;98543.16;;;14.80;42.78
19259;BME280;9763;48.780;9.212;2023-03-01T13:24:39;98543.41;;;14.66;42.78
19259;BME280;9763;48.780;9.212;2023-03-01T13:28:48;98552.41;;;14.41;42.50
19259;BME280;9763;48.780;9.212;2023-03-01T13:32:21;98549.50;;;14.22;42.40
19259;BME280;9763;48.780;9.212;2023-03-01T13:36:03;98552.97;;;14.11;43.01
19259;BME280;9763;48.780;9.212;2023-03-01T13:39:40;98543.28;;;14.00;42.93
19259;BME280;9763;48.780;9.212;2023-03-01T13:43:29;98523.81;;;13.81;43.30
19259;BME280;9763;48.780;9.212;2023-03-01T13:46:59;98540.63;;;13.89;43.54
19259;BME280;9763;48.780;9.212;2023-03-01T13:50:28;98533.03;;;13.86;43.88
19259;BME280;9763;48.780;9.212;2023-03-01T13:53:57;98539.56;;;13.81;43.33
19259;BME280;9763;48.780;9.212;2023-03-01T13:57:32;98545.28;;;13.75;43.96
19259;BME280;9763;48.780;9.212;2023-03-01T14:01:00;98535.72;;;13.62;43.60
19259;BME280;9763;48.780;9.212;2023-03-01T14:04:26;98531.16;;;13.64;43.36
19259;BME280;9763;48.780;9.212;2023-03-01T14:07:51;98533.66;;;13.55;43.45
19259;BME280;9763;48.780;9.212;2023-03-01T14:12:06;98529.22;;;13.44;43.74
19259;BME280;9763;48.780;9.212;2023-03-01T14:15:43;98536.94;;;13.34;44.01
19259;BME280;9763;48.780;9.212;2023-03-01T14:19:17;98547.16;;;13.26;44.20
19259;BME280;9763;48.780;9.212;2023-03-01T14:22:57;98528.00;;;13.13;44.09
19259;BME280;9763;48.780;9.212;2023-03-01T14:26:22;98543.84;;;13.12;43.77
19259;BME280;9763;48.780;9.212;2023-03-01T14:29:56;98548.81;;;13.04;44.29
19259;BME280;9763;48.780;9.212;2023-03-01T14:33:25;98542.31;;;12.96;43.87
19259;BME280;9763;48.780;9.212;2023-03-01T14:36:50;98536.31;;;12.83;44.16
19259;BME280;9763;48.780;9.212;2023-03-01T14:40:24;98537.69;;;12.76;44.65
19259;BME280;9763;48.780;9.212;2023-03-01T14:43:52;98546.19;;;12.80;44.60
19259;BME280;9763;48.780;9.212;2023-03-01T14:47:26;98554.47;;;12.74;44.46
19259;BME280;9763;48.780;9.212;2023-03-01T14:50:53;98557.19;;;12.72;44.09
19259;BME280;9763;48.780;9.212;2023-03-01T14:54:23;98562.78;;;12.68;44.28
19259;BME280;9763;48.780;9.212;2023-03-01T14:57:50;98553.47;;;12.51;44.47
19259;BME280;9763;48.780;9.212;2023-03-01T15:01:17;98552.09;;;12.58;44.41
19259;BME280;9763;48.780;9.212;2023-03-01T15:04:42;98558.50;;;12.54;44.31
19259;BME280;9763;48.780;9.212;2023-03-01T15:08:18;98557.88;;;12.50;44.59
19259;BME280;9763;48.780;9.212;2023-03-01T15:11:43;98554.72;;;12.45;44.61
19259;BME280;9763;48.780;9.212;2023-03-01T15:15:34;98542.84;;;12.29;44.24
19259;BME280;9763;48.780;9.212;2023-03-01T15:19:02;98560.44;;;12.26;44.77
19259;BME280;9763;48.780;9.212;2023-03-01T15:22:27;98553.13;;;12.19;44.32
19259;BME280;9763;48.780;9.212;2023-03-01T15:25:54;98555.22;;;12.14;44.95
19259;BME280;9763;48.780;9.212;2023-03-01T15:29:26;98543.72;;;12.04;44.88
19259;BME280;9763;48.780;9.212;2023-03-01T15:33:18;98541.19;;;11.89;44.87
19259;BME280;9763;48.780;9.212;2023-03-01T15:36:45;98552.28;;;11.93;44.64
19259;BME280;9763;48.780;9.212;2023-03-01T15:40:22;98558.03;;;11.85;44.36
19259;BME280;9763;48.780;9.212;2023-03-01T15:43:54;98544.44;;;11.80;44.53
19259;BME280;9763;48.780;9.212;2023-03-01T15:47:30;98536.13;;;11.74;44.83
19259;BME280;9763;48.780;9.212;2023-03-01T15:50:57;98515.72;;;11.53;44.98
19259;BME280;9763;48.780;9.212;2023-03-01T15:54:25;98543.84;;;11.63;44.81
19259;BME280;9763;48.780;9.212;2023-03-01T15:57:58;98535.50;;;11.58;45.03
19259;BME280;9763;48.780;9.212;2023-03-01T16:01:24;98527.22;;;11.51;44.89
19259;BME280;9763;48.780;9.212;2023-03-01T16:04:48;98525.88;;;11.45;44.84
19259;BME280;9763;48.780;9.212;2023-03-01T16:08:11;98522.81;;;11.39;45.17
19259;BME280;9763;48.780;9.212;2023-03-01T16:11:35;98529.41;;;11.32;45.22
19259;BME280;9763;48.780;9.212;2023-03-01T16:15:01;98519.34;;;11.26;45.03
19259;BME280;9763;48.780;9.212;2023-03-01T16:18:26;98523.41;;;11.17;45.20
19259;BME280;9763;48.780;9.212;2023-03-01T16:21:49;98537.47;;;11.14;45.20
19259;BME280;9763;48.780;9.212;2023-03-01T16:25:16;98524.00;;;11.08;45.14
19259;BME280;9763;48.780;9.212;2023-03-01T16:28:40;98534.72;;;11.03;45.14
19259;BME280;9763;48.780;9.212;2023-03-01T16:32:05;98535.16;;;10.97;45.09
19259;BME280;9763;48.780;9.212;2023-03-01T16:35:30;98534.69;;;10.91;44.88
19259;BME280;9763;48.780;9.212;2023-03-01T16:38:54;98531.66;;;10.84;45.18
19259;BME280;9763;48.780;9.212;2023-03-01T16:42:18;98534.63;;;10.78;45.16
19259;BME280;9763;48.780;9.212;2023-03-01T16:45:42;98540.03;;;10.75;45.16
19259;BME280;9763;48.780;9.212;2023-03-01T16:49:07;98536.16;;;10.68;45.06
19259;BME280;9763;48.780;9.212;2023-03-01T16:52:33;98538.44;;;10.60;45.35
19259;BME280;9763;48.780;9.212;2023-03-01T16:55:58;98549.13;;;10.55;45.29
19259;BME280;9763;48.780;9.212;2023-03-01T16:59:22;98562.28;;;10.54;45.29
19259;BME280;9763;48.780;9.212;2023-03-01T17:02:46;98566.88;;;10.50;45.61
19259;BME280;9763;48.780;9.212;2023-03-01T17:06:13;98567.25;;;10.44;45.48
19259;BME280;9763;48.780;9.212;2023-03-01T17:09:38;98574.50;;;10.39;45.57
19259;BME280;9763;48.780;9.212;2023-03-01T17:13:01;98573.97;;;10.34;45.34
19259;BME280;9763;48.780;9.212;2023-03-01T17:16:26;98577.78;;;10.28;45.55
19259;BME280;9763;48.780;9.212;2023-03-01T17:19:50;98583.28;;;10.24;45.54
19259;BME280;9763;48.780;9.212;2023-03-01T17:23:14;98580.94;;;10.19;45.52
19259;BME280;9763;48.780;9.212;2023-03-01T17:26:39;98596.94;;;10.13;45.41
19259;BME280;9763;48.780;9.212;2023-03-01T17:30:06;98591.41;;;10.03;45.28
19259;BME280;9763;48.780;9.212;2023-03-01T17:33:31;98595.06;;;10.01;44.99
19259;BME280;9763;48.780;9.212;2023-03-01T17:36:55;98594.97;;;9.88;45.23
19259;BME280;9763;48.780;9.212;2023-03-01T17:40:18;98605.38;;;9.88;45.39
19259;BME280;9763;48.780;9.212;2023-03-01T17:43:44;98607.59;;;9.80;45.46
19259;BME280;9763;48.780;9.212;2023-03-01T17:47:09;98614.00;;;9.74;45.21
19259;BME280;9763;48.780;9.212;2023-03-01T17:50:37;98617.88;;;9.67;45.50
19259;BME280;9763;48.780;9.212;2023-03-01T17:54:01;98618.44;;;9.58;45.42
19259;BME280;9763;48.780;9.212;2023-03-01T17:57:25;98612.81;;;9.50;45.45
19259;BME280;9763;48.780;9.212;2023-03-01T18:00:50;98609.63;;;9.45;45.36
19259;BME280;9763;48.780;9.212;2023-03-01T18:04:14;98605.13;;;9.33;45.71
19259;BME280;9763;48.780;9.212;2023-03-01T18:07:39;98608.66;;;9.32;45.81
19259;BME280;9763;48.780;9.212;2023-03-01T18:11:03;98604.72;;;9.25;45.90
19259;BME280;9763;48.780;9.212;2023-03-01T18:14:27;98594.00;;;9.15;45.47
19259;BME280;9763;48.780;9.212;2023-03-01T18:17:56;98565.22;;;8.87;45.75
19259;BME280;9763;48.780;9.212;2023-03-01T18:21:21;98608.47;;;9.05;45.89
19259;BME280;9763;48.780;9.212;2023-03-01T18:24:45;98612.16;;;9.01;46.06
19259;BME280;9763;48.780;9.212;2023-03-01T18:28:08;98612.31;;;8.98;46.10
19259;BME280;9763;48.780;9.212;2023-03-01T18:31:32;98609.88;;;8.95;45.81
19259;BME280;9763;48.780;9.212;2023-03-01T18:34:57;98610.06;;;8.92;45.87
19259;BME280;9763;48.780;9.212;2023-03-01T18:38:21;98619.78;;;8.88;45.96
19259;BME280;9763;48.780;9.212;2023-03-01T18:41:45;98615.66;;;8.84;46.19
19259;BME280;9763;48.780;9.212;2023-03-01T18:45:09;98615.94;;;8.80;46.11
19259;BME280;9763;48.780;9.212;2023-03-01T18:48:35;98593.25;;;8.66;46.20
19259;BME280;9763;48.780;9.212;2023-03-01T18:52:00;98569.97;;;8.47;45.96